Time;durP1;ratioP1;P1;durP2;ratioP2;P2;SDS_P1;SDS_P2;PMS_P1;PMS_P2;Temp;Humidity;BMP_temperature;BMP_pressure;BME280_temperature;BME280_humidity;BME280_pressure;Samples;Min_cycle;Max_cycle;Signal;HPM_P1;HPM_P2
2021/01/05 00:00:13;;;;;;;2.35;0.70;;;14.50;52.40;;;;;;4995422;28;20061;-79
2021/01/05 00:02:39;;;;;;;3.60;0.95;;;14.50;52.50;;;;;;4990962;28;20108;-80
2021/01/05 00:05:06;;;;;;;3.00;0.90;;;14.50;52.50;;;;;;4975914;28;20373;-79
2021/01/05 00:07:32;;;;;;;2.70;0.98;;;14.50;52.50;;;;;;4976010;28;20050;-80
2021/01/05 00:09:58;;;;;;;3.10;0.80;;;14.50;52.60;;;;;;4975609;28;20472;-79
2021/01/05 00:12:24;;;;;;;3.00;0.93;;;14.50;52.50;;;;;;4959888;28;20042;-79
2021/01/05 00:14:50;;;;;;;1.63;0.80;;;14.50;52.70;;;;;;4976393;28;20056;-79
2021/01/05 00:17:18;;;;;;;4.13;0.90;;;14.50;52.70;;;;;;4979442;28;20624;-80
2021/01/05 00:19:46;;;;;;;2.45;0.82;;;14.50;52.70;;;;;;4979518;28;20051;-79
2021/01/05 00:22:13;;;;;;;1.92;0.85;;;14.50;52.80;;;;;;4980663;28;20066;-80
2021/01/05 00:24:40;;;;;;;4.13;0.82;;;14.50;52.80;;;;;;4998289;28;20385;-79
2021/01/05 00:27:06;;;;;;;3.38;0.80;;;14.50;52.80;;;;;;4999175;28;20077;-80
2021/01/05 00:29:33;;;;;;;2.30;0.60;;;14.50;52.90;;;;;;4998584;28;20109;-80
2021/01/05 00:32:18;;;;;;;3.10;1.13;;;14.50;52.80;;;;;;4997975;28;20038;-79
2021/01/05 00:34:45;;;;;;;3.00;0.85;;;14.50;52.80;;;;;;4994398;28;20096;-80
2021/01/05 00:37:12;;;;;;;3.22;1.23;;;14.50;52.90;;;;;;4998474;28;20054;-79
2021/01/05 00:39:38;;;;;;;2.20;0.73;;;14.50;52.80;;;;;;4998841;28;20050;-79
2021/01/05 00:42:04;;;;;;;3.95;0.93;;;14.50;52.80;;;;;;4998120;28;20097;-79
2021/01/05 00:44:29;;;;;;;2.75;0.98;;;14.50;52.80;;;;;;4979194;28;20457;-80
2021/01/05 00:46:55;;;;;;;2.70;1.05;;;14.50;52.90;;;;;;4979336;28;20066;-79
2021/01/05 00:49:22;;;;;;;4.35;0.85;;;14.50;52.80;;;;;;4984134;28;20113;-80
2021/01/05 00:51:47;;;;;;;3.10;0.60;;;14.50;52.90;;;;;;4996871;28;20054;-80
2021/01/05 00:54:13;;;;;;;3.15;0.65;;;14.50;52.80;;;;;;4997637;28;20350;-79
2021/01/05 00:56:39;;;;;;;4.28;0.75;;;14.50;52.90;;;;;;5014090;28;20042;-80
2021/01/05 00:59:05;;;;;;;2.58;0.80;;;14.50;53.00;;;;;;4998144;28;20068;-80
2021/01/05 01:01:31;;;;;;;3.08;0.80;;;14.50;53.00;;;;;;4998417;28;20125;-80
2021/01/05 01:03:57;;;;;;;3.20;0.95;;;14.50;53.00;;;;;;4996788;28;20113;-79
2021/01/05 01:06:23;;;;;;;3.83;1.10;;;14.50;52.80;;;;;;4997574;28;20134;-80
2021/01/05 01:08:49;;;;;;;4.45;0.82;;;14.50;52.80;;;;;;4998447;28;20073;-80
2021/01/05 01:11:15;;;;;;;1.63;0.50;;;14.60;52.80;;;;;;5013730;28;20381;-80
2021/01/05 01:13:41;;;;;;;2.33;0.63;;;14.60;52.70;;;;;;4996466;28;20043;-79
2021/01/05 01:16:08;;;;;;;3.25;0.60;;;14.60;52.60;;;;;;4988890;28;20540;-80
2021/01/05 01:18:34;;;;;;;3.33;1.23;;;14.60;52.60;;;;;;4978508;28;20054;-79
2021/01/05 01:21:01;;;;;;;2.83;0.90;;;14.60;52.50;;;;;;4978558;28;20057;-80
2021/01/05 01:23:28;;;;;;;3.95;1.02;;;14.60;52.40;;;;;;4992953;28;20050;-80
2021/01/05 01:25:53;;;;;;;3.92;0.95;;;14.60;52.40;;;;;;4997912;28;20046;-79
2021/01/05 01:28:19;;;;;;;3.30;0.80;;;14.60;52.40;;;;;;4997419;28;20046;-79
2021/01/05 01:30:47;;;;;;;2.70;0.80;;;14.60;52.40;;;;;;4997559;28;20057;-79
2021/01/05 01:33:13;;;;;;;1.98;0.50;;;14.60;52.40;;;;;;4985225;28;20113;-80
2021/01/05 01:35:39;;;;;;;3.30;0.68;;;14.60;52.40;;;;;;4978019;28;20035;-80
2021/01/05 01:38:05;;;;;;;3.75;1.00;;;14.60;52.40;;;;;;4978275;28;20133;-79
2021/01/05 01:40:38;;;;;;;3.42;0.90;;;14.70;52.50;;;;;;4981487;28;20046;-79
2021/01/05 01:43:05;;;;;;;2.00;0.75;;;14.70;52.50;;;;;;4985818;28;20473;-80
2021/01/05 01:45:33;;;;;;;3.42;1.20;;;14.60;52.40;;;;;;4977390;28;20438;-79
2021/01/05 01:48:01;;;;;;;2.25;0.60;;;14.60;52.40;;;;;;4977723;28;20049;-79
2021/01/05 01:50:30;;;;;;;1.80;0.70;;;14.70;52.40;;;;;;4977821;28;20051;-79
2021/01/05 01:53:33;;;;;;;2.83;0.80;;;14.70;52.40;;;;;;4978718;28;20468;-79
2021/01/05 01:56:22;;;;;;;2.47;0.80;;;14.70;52.30;;;;;;4977643;28;20456;-80
2021/01/05 01:59:20;;;;;;;2.53;0.77;;;14.70;52.30;;;;;;4977990;28;20397;-79
2021/01/05 02:02:00;;;;;;;2.42;0.70;;;14.60;52.30;;;;;;4985636;28;20042;-79
2021/01/05 02:04:38;;;;;;;5.43;0.95;;;14.60;52.30;;;;;;4996671;28;20113;-80
2021/01/05 02:07:09;;;;;;;4.07;0.90;;;14.60;52.40;;;;;;4996870;28;20493;-79
2021/01/05 02:09:44;;;;;;;2.90;0.93;;;14.60;52.30;;;;;;4985459;28;20047;-79
2021/01/05 02:12:28;;;;;;;3.38;0.60;;;14.60;52.30;;;;;;4979520;28;20042;-79
2021/01/05 02:15:08;;;;;;;3.65;0.70;;;14.60;52.30;;;;;;4977585;28;20043;-79
2021/01/05 02:17:48;;;;;;;2.40;0.80;;;14.60;52.30;;;;;;4980456;28;20046;-80
2021/01/05 02:20:54;;;;;;;3.58;0.95;;;14.60;52.30;;;;;;4996779;28;20056;-79
2021/01/05 02:23:43;;;;;;;3.60;0.80;;;14.60;52.30;;;;;;4994128;28;20077;-79
2021/01/05 02:26:30;;;;;;;2.78;1.08;;;14.60;52.30;;;;;;4996991;28;20046;-79
2021/01/05 02:29:11;;;;;;;3.47;1.13;;;14.60;52.30;;;;;;4996819;28;20046;-79
2021/01/05 02:31:49;;;;;;;4.55;1.13;;;14.60;52.30;;;;;;4992295;28;20050;-80
2021/01/05 02:34:15;;;;;;;4.88;1.23;;;14.50;52.30;;;;;;4977331;28;20066;-79
2021/01/05 02:36:44;;;;;;;4.18;1.25;;;14.50;52.30;;;;;;5008519;28;20108;-79
2021/01/05 02:39:55;;;;;;;5.30;1.65;;;14.50;52.40;;;;;;4995455;28;20408;-79
2021/01/05 02:42:58;;;;;;;3.35;1.23;;;14.50;52.30;;;;;;4985596;28;20397;-79
2021/01/05 02:45:37;;;;;;;2.53;0.90;;;14.50;52.30;;;;;;4992326;28;20477;-80
2021/01/05 02:48:33;;;;;;;2.53;1.02;;;14.50;52.50;;;;;;4977074;28;20038;-79
2021/01/05 02:51:21;;;;;;;3.58;0.98;;;14.50;52.40;;;;;;4976477;28;20453;-80
2021/01/05 02:54:17;;;;;;;3.60;1.33;;;14.50;52.40;;;;;;4995106;28;20042;-79
2021/01/05 02:57:10;;;;;;;2.38;0.88;;;14.50;52.40;;;;;;4978485;28;20058;-79
2021/01/05 03:00:15;;;;;;;3.63;1.13;;;14.50;52.40;;;;;;4985650;28;20050;-80
2021/01/05 03:02:46;;;;;;;2.67;0.95;;;14.50;52.40;;;;;;4968456;28;20054;-79
2021/01/05 03:05:12;;;;;;;3.30;0.80;;;14.50;52.40;;;;;;4995597;28;20061;-79
2021/01/05 03:07:38;;;;;;;4.20;0.98;;;14.50;52.50;;;;;;4995567;28;20369;-80
2021/01/05 03:10:29;;;;;;;3.15;0.85;;;14.50;52.40;;;;;;4979226;28;20074;-79
2021/01/05 03:13:29;;;;;;;3.45;1.10;;;14.50;52.40;;;;;;4977115;28;20042;-79
2021/01/05 03:16:20;;;;;;;2.08;0.82;;;14.40;52.30;;;;;;4990212;28;20059;-80
2021/01/05 03:19:06;;;;;;;2.67;0.70;;;14.40;52.40;;;;;;4995875;28;20085;-79
2021/01/05 03:21:35;;;;;;;1.75;0.75;;;14.40;52.40;;;;;;4990522;28;20059;-79
2021/01/05 03:24:02;;;;;;;2.28;0.73;;;14.40;52.40;;;;;;4995744;28;20047;-80
2021/01/05 03:26:44;;;;;;;2.88;0.90;;;14.40;52.40;;;;;;4995765;28;20066;-79
2021/01/05 03:29:12;;;;;;;4.07;1.02;;;14.40;52.40;;;;;;4983363;28;20086;-79
2021/01/05 03:31:53;;;;;;;3.25;0.75;;;14.40;52.40;;;;;;4977545;28;20039;-80
2021/01/05 03:34:19;;;;;;;3.85;1.42;;;14.40;52.30;;;;;;4995234;28;20038;-79
2021/01/05 03:36:45;;;;;;;3.70;0.80;;;14.40;52.40;;;;;;4995884;28;20070;-80
2021/01/05 03:39:12;;;;;;;2.25;0.80;;;14.50;52.40;;;;;;4995938;28;20046;-79
2021/01/05 03:41:38;;;;;;;2.72;0.95;;;14.40;52.40;;;;;;4988613;28;20050;-79
2021/01/05 03:44:04;;;;;;;2.42;0.80;;;14.40;52.40;;;;;;4976436;28;20502;-80
2021/01/05 03:46:30;;;;;;;3.75;1.00;;;14.40;52.40;;;;;;4976962;28;20046;-81
2021/01/05 03:48:57;;;;;;;3.00;0.88;;;14.40;52.40;;;;;;4976282;28;20054;-79
2021/01/05 03:51:23;;;;;;;2.45;0.80;;;14.40;52.40;;;;;;4980805;28;20070;-80
2021/01/05 03:53:49;;;;;;;2.25;0.80;;;14.40;52.30;;;;;;4999301;28;20046;-80
2021/01/05 03:56:15;;;;;;;2.78;1.00;;;14.40;52.30;;;;;;4998467;28;20046;-80
2021/01/05 03:58:41;;;;;;;2.17;0.73;;;14.40;52.30;;;;;;4999529;28;20053;-80
2021/01/05 04:01:07;;;;;;;2.25;0.93;;;14.40;52.90;;;;;;4998661;28;20369;-80
2021/01/05 04:03:33;;;;;;;1.77;0.70;;;14.40;52.30;;;;;;4998820;28;20181;-80
2021/01/05 04:05:59;;;;;;;2.40;0.80;;;14.40;52.30;;;;;;4998605;28;20043;-79
2021/01/05 04:08:27;;;;;;;3.60;0.88;;;14.40;52.40;;;;;;4999338;28;20050;-79
2021/01/05 04:10:53;;;;;;;2.63;1.00;;;14.40;52.40;;;;;;4999759;28;20153;-79
2021/01/05 04:13:18;;;;;;;2.58;0.85;;;14.40;52.40;;;;;;4979945;28;20465;-80
2021/01/05 04:15:44;;;;;;;2.40;0.60;;;14.40;52.40;;;;;;4968883;28;20118;-79
2021/01/05 04:18:10;;;;;;;1.52;0.80;;;14.40;52.50;;;;;;4979726;28;20121;-79
2021/01/05 04:20:36;;;;;;;1.58;1.08;;;14.40;52.50;;;;;;4979651;28;20054;-79
2021/01/05 04:23:02;;;;;;;1.80;0.80;;;14.30;52.40;;;;;;4988422;28;20047;-79
2021/01/05 04:25:28;;;;;;;2.97;0.77;;;14.40;52.40;;;;;;4979617;28;20053;-79
2021/01/05 04:27:55;;;;;;;2.00;0.63;;;14.30;52.40;;;;;;4994294;28;20066;-80
2021/01/05 04:30:25;;;;;;;2.83;0.80;;;14.40;52.40;;;;;;4998454;28;20065;-79
2021/01/05 04:32:53;;;;;;;3.40;0.90;;;14.30;52.40;;;;;;4998027;28;20070;-80
2021/01/05 04:35:20;;;;;;;1.92;0.70;;;14.40;52.60;;;;;;4998422;28;20359;-80
2021/01/05 04:37:47;;;;;;;1.98;0.68;;;14.30;52.50;;;;;;4995070;28;20042;-80
2021/01/05 04:40:33;;;;;;;2.28;0.50;;;14.30;52.40;;;;;;4979241;28;20069;-79
2021/01/05 04:43:21;;;;;;;3.72;0.80;;;14.30;52.40;;;;;;4984038;28;20338;-79
2021/01/05 04:46:05;;;;;;;4.10;0.68;;;14.30;52.40;;;;;;5013963;28;20053;-79
2021/01/05 04:48:41;;;;;;;4.75;0.90;;;14.30;52.50;;;;;;4993069;28;20165;-80
2021/01/05 04:51:27;;;;;;;3.50;0.88;;;14.30;52.60;;;;;;4990934;28;20144;-79
2021/01/05 04:54:14;;;;;;;3.50;0.65;;;14.40;52.70;;;;;;4981122;28;20057;-79
2021/01/05 04:57:05;;;;;;;2.55;0.60;;;14.40;52.70;;;;;;4994864;28;20042;-80
2021/01/05 04:59:37;;;;;;;1.65;0.55;;;14.50;52.90;;;;;;4995750;28;20145;-79
2021/01/05 05:02:09;;;;;;;9.10;1.13;;;14.50;53.00;;;;;;4996815;28;20134;-77
2021/01/05 05:04:46;;;;;;;5.72;0.85;;;14.60;53.40;;;;;;4986759;28;20046;-79
2021/01/05 05:07:39;;;;;;;14.45;1.38;;;14.70;53.80;;;;;;4997484;28;20046;-79
2021/01/05 05:10:20;;;;;;;14.48;1.60;;;14.70;54.10;;;;;;4995817;28;20101;-79
2021/01/05 05:12:59;;;;;;;6.65;1.33;;;14.80;54.40;;;;;;4992989;28;20073;-78
2021/01/05 05:15:27;;;;;;;13.23;1.60;;;14.90;55.20;;;;;;4996243;28;20038;-78
2021/01/05 05:18:02;;;;;;;8.13;1.48;;;15.00;55.60;;;;;;4997735;28;20112;-78
2021/01/05 05:20:40;;;;;;;9.65;1.17;;;15.00;55.50;;;;;;4996676;28;20054;-78
2021/01/05 05:23:40;;;;;;;12.70;1.23;;;15.10;55.20;;;;;;4986068;28;20559;-77
2021/01/05 05:26:19;;;;;;;12.13;1.65;;;15.20;55.40;;;;;;4997089;28;20050;-80
2021/01/05 05:29:12;;;;;;;23.60;2.08;;;15.30;55.90;;;;;;4992388;28;20519;-77
2021/01/05 05:31:38;;;;;;;9.25;1.00;;;15.40;56.00;;;;;;4967426;28;20089;-77
2021/01/05 05:34:17;;;;;;;7.32;1.55;;;15.40;55.80;;;;;;4992385;28;20085;-77
2021/01/05 05:37:20;;;;;;;9.20;0.90;;;15.50;56.10;;;;;;4996841;28;20042;-77
2021/01/05 05:40:04;;;;;;;5.60;1.48;;;15.50;55.90;;;;;;4997729;28;20077;-79
2021/01/05 05:42:56;;;;;;;6.97;1.13;;;15.60;55.90;;;;;;4956075;29;20098;-78
2021/01/05 05:45:31;;;;;;;13.40;1.52;;;15.70;55.80;;;;;;4956518;28;20062;-80
2021/01/05 05:48:17;;;;;;;8.27;1.20;;;15.70;55.90;;;;;;4958156;28;20047;-79
2021/01/05 05:50:46;;;;;;;10.48;1.52;;;15.70;56.30;;;;;;4957915;29;20039;-81
2021/01/05 05:53:18;;;;;;;8.63;1.80;;;15.70;56.50;;;;;;4957989;29;20043;-80
2021/01/05 05:55:48;;;;;;;10.07;1.60;;;15.70;56.50;;;;;;4958154;28;20050;-79
2021/01/05 05:58:22;;;;;;;9.98;1.25;;;15.70;56.40;;;;;;4958459;28;20081;-81
2021/01/05 06:00:54;;;;;;;6.95;1.00;;;15.70;56.30;;;;;;4956648;29;20489;-81
2021/01/05 06:03:22;;;;;;;8.82;1.10;;;15.70;56.40;;;;;;4957772;29;20043;-80
2021/01/05 06:05:48;;;;;;;10.95;1.10;;;15.80;56.40;;;;;;4958428;28;20051;-80
2021/01/05 06:08:17;;;;;;;9.43;1.67;;;15.80;56.30;;;;;;4958263;28;20050;-81
2021/01/05 06:10:44;;;;;;;5.78;1.15;;;15.80;56.70;;;;;;4938634;29;20058;-80
2021/01/05 06:13:10;;;;;;;4.55;1.10;;;15.90;55.90;;;;;;4944947;29;20058;-80
2021/01/05 06:15:37;;;;;;;5.75;1.13;;;15.90;55.80;;;;;;4957419;29;20521;-80
2021/01/05 06:18:05;;;;;;;7.63;1.10;;;15.90;55.70;;;;;;4956208;29;20053;-79
2021/01/05 06:20:30;;;;;;;7.47;0.85;;;15.90;55.80;;;;;;4957525;29;20059;-80
2021/01/05 06:22:56;;;;;;;6.30;1.23;;;15.90;55.50;;;;;;4958209;28;20047;-80
2021/01/05 06:25:22;;;;;;;9.02;0.95;;;15.90;55.30;;;;;;4956707;28;20134;-81
2021/01/05 06:27:48;;;;;;;9.10;1.10;;;15.90;55.30;;;;;;4948504;29;20035;-82
2021/01/05 06:30:20;;;;;;;4.60;1.13;;;15.90;54.70;;;;;;4956146;29;20079;-84
2021/01/05 06:32:47;;;;;;;5.18;0.98;;;15.80;54.40;;;;;;4959828;28;20047;-82
2021/01/05 06:35:15;;;;;;;5.53;1.20;;;15.70;53.90;;;;;;4972227;28;20047;-82
2021/01/05 06:37:41;;;;;;;5.28;1.13;;;15.60;54.60;;;;;;4972267;28;20047;-82
2021/01/05 06:40:09;;;;;;;5.78;1.17;;;15.50;54.00;;;;;;4956569;28;20053;-85
2021/01/05 06:42:36;;;;;;;3.83;1.30;;;15.40;54.00;;;;;;4994345;28;20094;-84
2021/01/05 06:45:08;;;;;;;6.75;1.50;;;15.30;53.90;;;;;;4989179;28;20476;-79
2021/01/05 06:47:34;;;;;;;7.70;1.67;;;15.30;54.70;;;;;;5005549;28;20050;-79
2021/01/05 06:50:03;;;;;;;7.82;1.08;;;15.20;54.20;;;;;;5015762;28;20460;-83
2021/01/05 06:52:29;;;;;;;8.50;1.00;;;15.20;54.70;;;;;;4998193;28;20053;-81
2021/01/05 06:54:55;;;;;;;6.35;1.25;;;15.20;55.00;;;;;;4991796;28;20123;-79
2021/01/05 06:57:21;;;;;;;9.90;1.05;;;15.20;55.30;;;;;;4977021;28;20422;-84
2021/01/05 06:59:49;;;;;;;12.75;1.58;;;15.30;55.80;;;;;;4971762;28;20046;-79
2021/01/05 07:02:15;;;;;;;6.68;1.17;;;15.40;56.80;;;;;;4977976;28;20042;-82
2021/01/05 07:04:42;;;;;;;6.35;0.90;;;15.50;57.40;;;;;;4994954;28;20065;-80
2021/01/05 07:07:08;;;;;;;8.10;1.30;;;15.60;57.80;;;;;;4995544;28;20073;-82
2021/01/05 07:09:33;;;;;;;7.15;1.17;;;15.70;58.60;;;;;;4978853;28;20050;-81
2021/01/05 07:11:59;;;;;;;10.45;1.40;;;15.80;58.40;;;;;;4996411;28;20480;-77
2021/01/05 07:14:27;;;;;;;7.55;1.27;;;15.80;58.80;;;;;;4994201;28;20044;-78
2021/01/05 07:16:54;;;;;;;9.80;1.05;;;15.80;59.20;;;;;;4978802;28;20042;-79
2021/01/05 07:19:20;;;;;;;4.07;1.20;;;15.80;61.10;;;;;;4995971;28;20046;-79
2021/01/05 07:21:46;;;;;;;7.15;1.48;;;15.90;61.10;;;;;;4986558;28;20053;-81
2021/01/05 07:24:12;;;;;;;6.15;1.02;;;16.00;60.70;;;;;;4977366;28;20409;-82
2021/01/05 07:26:43;;;;;;;6.95;1.05;;;16.00;60.10;;;;;;4976495;28;20050;-79
2021/01/05 07:29:11;;;;;;;6.47;0.80;;;16.10;59.70;;;;;;4976657;28;20146;-77
2021/01/05 07:31:37;;;;;;;8.48;1.00;;;16.20;59.40;;;;;;4960477;28;20051;-78
2021/01/05 07:34:03;;;;;;;9.57;1.45;;;16.20;59.30;;;;;;4983178;28;20504;-76
2021/01/05 07:36:31;;;;;;;4.78;0.77;;;16.30;59.20;;;;;;4995269;28;20053;-84
2021/01/05 07:38:57;;;;;;;8.20;1.33;;;16.30;58.90;;;;;;4995167;28;20046;-79
2021/01/05 07:41:23;;;;;;;7.78;1.02;;;16.30;58.40;;;;;;4993921;28;20051;-80
2021/01/05 07:43:49;;;;;;;4.60;1.10;;;16.40;57.90;;;;;;4994502;28;20042;-79
2021/01/05 07:46:16;;;;;;;4.63;0.70;;;16.40;57.50;;;;;;4995680;28;20101;-79
2021/01/05 07:48:42;;;;;;;8.00;1.00;;;16.40;57.40;;;;;;4995761;28;20057;-81
2021/01/05 07:51:09;;;;;;;10.85;1.27;;;16.40;57.30;;;;;;4987794;28;20051;-80
2021/01/05 07:53:36;;;;;;;8.52;1.40;;;16.40;57.50;;;;;;4975907;28;20146;-81
2021/01/05 07:56:02;;;;;;;6.60;1.27;;;16.40;57.60;;;;;;4976126;28;20043;-80
2021/01/05 07:58:27;;;;;;;5.88;1.20;;;16.40;57.40;;;;;;4975830;28;20039;-80
2021/01/05 08:00:53;;;;;;;6.53;1.10;;;16.40;57.20;;;;;;4977688;28;20046;-80
2021/01/05 08:03:19;;;;;;;5.78;0.88;;;16.40;57.10;;;;;;4992269;28;20048;-80
2021/01/05 08:05:48;;;;;;;4.88;1.40;;;16.40;57.10;;;;;;4995683;28;20045;-81
2021/01/05 08:08:15;;;;;;;7.60;0.80;;;16.40;57.10;;;;;;4995101;28;20042;-81
2021/01/05 08:10:41;;;;;;;8.63;1.35;;;16.50;56.90;;;;;;4992512;28;20455;-81
2021/01/05 08:13:10;;;;;;;6.80;0.93;;;16.50;56.80;;;;;;4976051;28;20052;-81
2021/01/05 08:15:36;;;;;;;9.45;1.02;;;16.50;56.70;;;;;;4958572;28;20386;-81
2021/01/05 08:18:03;;;;;;;4.95;1.00;;;16.50;56.60;;;;;;4976430;28;20105;-80
2021/01/05 08:20:31;;;;;;;8.13;1.02;;;16.50;56.50;;;;;;4976699;28;20122;-81
2021/01/05 08:22:58;;;;;;;6.10;1.17;;;16.50;56.50;;;;;;4975517;28;20109;-80
2021/01/05 08:25:24;;;;;;;4.45;1.00;;;16.50;56.40;;;;;;4992209;28;20445;-80
2021/01/05 08:27:51;;;;;;;5.70;1.55;;;16.50;56.30;;;;;;4994612;28;20042;-81
2021/01/05 08:30:26;;;;;;;7.50;1.15;;;16.50;56.20;;;;;;4995186;28;20041;-80
2021/01/05 08:32:54;;;;;;;6.30;0.85;;;16.50;56.20;;;;;;4996044;28;20042;-78
2021/01/05 08:35:23;;;;;;;8.75;1.30;;;16.50;56.20;;;;;;4994445;28;20050;-80
2021/01/05 08:37:50;;;;;;;3.65;0.50;;;16.50;55.70;;;;;;4997108;28;20062;-80
2021/01/05 08:40:25;;;;;;;5.05;0.73;;;16.50;55.80;;;;;;4998174;28;20046;-79
2021/01/05 08:42:51;;;;;;;6.43;0.77;;;16.50;55.20;;;;;;4978887;28;20046;-79
2021/01/05 08:45:16;;;;;;;5.07;0.88;;;16.50;55.70;;;;;;4979078;28;20377;-79
2021/01/05 08:47:45;;;;;;;4.38;0.63;;;16.50;55.90;;;;;;4978972;28;20211;-79
2021/01/05 08:50:17;;;;;;;5.20;1.20;;;16.50;55.50;;;;;;4979270;28;20047;-79
2021/01/05 08:52:43;;;;;;;2.65;0.50;;;16.50;55.50;;;;;;4993144;28;20133;-79
2021/01/05 08:55:10;;;;;;;2.95;0.55;;;16.50;55.40;;;;;;4997899;28;20424;-79
2021/01/05 08:57:36;;;;;;;5.40;0.73;;;16.50;55.40;;;;;;4997749;28;20081;-80
2021/01/05 09:00:04;;;;;;;4.68;0.75;;;16.60;55.70;;;;;;4997777;28;20073;-80
2021/01/05 09:02:29;;;;;;;2.63;0.90;;;16.60;55.40;;;;;;4994214;28;20141;-79
2021/01/05 09:04:55;;;;;;;5.25;0.70;;;16.60;55.20;;;;;;4998089;28;20082;-79
2021/01/05 09:07:21;;;;;;;4.90;0.75;;;16.60;55.20;;;;;;4997983;28;20054;-79
2021/01/05 09:09:48;;;;;;;6.22;0.82;;;16.60;55.20;;;;;;4997986;28;20516;-79
2021/01/05 09:12:15;;;;;;;2.58;0.70;;;16.70;55.30;;;;;;4995314;28;20108;-81
2021/01/05 09:14:40;;;;;;;3.25;0.80;;;16.70;55.20;;;;;;4986021;28;20053;-81
2021/01/05 09:17:06;;;;;;;3.30;0.70;;;16.70;55.00;;;;;;4997877;28;20046;-78
2021/01/05 09:19:32;;;;;;;5.00;1.00;;;16.70;55.00;;;;;;4997681;28;20053;-81
2021/01/05 09:21:58;;;;;;;5.53;0.50;;;16.60;54.80;;;;;;4989056;28;20134;-79
2021/01/05 09:24:24;;;;;;;1.63;0.40;;;16.70;54.90;;;;;;4979316;28;20101;-79
2021/01/05 09:26:52;;;;;;;4.18;0.47;;;16.70;54.90;;;;;;4978264;28;20046;-79
2021/01/05 09:29:18;;;;;;;5.72;0.60;;;16.70;55.20;;;;;;4978048;28;20043;-79
2021/01/05 09:31:46;;;;;;;5.57;0.63;;;16.70;54.90;;;;;;4987443;28;20038;-79
2021/01/05 09:34:14;;;;;;;4.53;1.08;;;16.70;55.00;;;;;;4997506;28;20042;-79
2021/01/05 09:36:40;;;;;;;6.85;0.82;;;16.60;54.90;;;;;;4995589;28;20041;-79
2021/01/05 09:39:10;;;;;;;3.95;0.52;;;16.60;55.20;;;;;;4991675;28;20503;-80
2021/01/05 09:41:43;;;;;;;2.22;0.57;;;16.50;55.30;;;;;;4989589;28;20137;-80
2021/01/05 09:44:10;;;;;;;5.45;1.02;;;16.50;55.60;;;;;;4987942;28;20057;-79
2021/01/05 09:46:39;;;;;;;4.72;1.00;;;16.40;56.00;;;;;;4980381;28;20081;-79
2021/01/05 09:49:06;;;;;;;7.82;1.08;;;16.40;55.50;;;;;;4989157;28;20074;-76
2021/01/05 09:51:33;;;;;;;4.50;0.93;;;16.40;55.10;;;;;;4983170;28;20047;-79
2021/01/05 09:53:58;;;;;;;5.30;0.90;;;16.30;54.40;;;;;;4993089;28;20085;-78
2021/01/05 09:56:24;;;;;;;5.35;0.90;;;16.30;54.10;;;;;;4995957;28;20408;-78
2021/01/05 09:58:51;;;;;;;10.80;1.50;;;16.20;54.00;;;;;;4996767;28;20100;-79
2021/01/05 10:01:28;;;;;;;11.10;1.13;;;16.20;54.40;;;;;;4986895;28;20059;-79
2021/01/05 10:03:54;;;;;;;7.68;1.60;;;16.20;55.10;;;;;;4959888;28;20046;-78
2021/01/05 10:06:22;;;;;;;5.22;0.90;;;16.10;54.70;;;;;;4977042;28;20058;-83
2021/01/05 10:08:48;;;;;;;26.83;4.43;;;16.00;54.70;;;;;;4990291;28;20045;-79
2021/01/05 10:11:14;;;;;;;19.33;5.07;;;15.90;56.00;;;;;;4994565;28;20053;-78
2021/01/05 10:13:40;;;;;;;15.57;3.63;;;15.90;57.40;;;;;;4996179;28;20405;-77
2021/01/05 10:16:06;;;;;;;11.70;3.17;;;16.00;58.40;;;;;;4996691;28;20046;-79
2021/01/05 10:18:31;;;;;;;24.58;3.53;;;16.00;58.40;;;;;;4996623;28;20065;-79
2021/01/05 10:20:57;;;;;;;11.55;2.63;;;16.10;60.40;;;;;;4986095;28;20117;-80
2021/01/05 10:23:23;;;;;;;9.77;2.42;;;16.10;62.20;;;;;;4995181;28;20074;-82
2021/01/05 10:25:49;;;;;;;12.20;2.05;;;16.10;62.70;;;;;;4994319;28;20484;-80
2021/01/05 10:28:15;;;;;;;32.72;2.70;;;16.10;63.30;;;;;;4996410;28;20046;-83
2021/01/05 10:30:41;;;;;;;14.75;2.17;;;16.20;63.50;;;;;;4988675;28;20043;-80
2021/01/05 10:33:07;;;;;;;11.95;2.10;;;16.20;63.50;;;;;;4976932;28;20459;-80
2021/01/05 10:35:33;;;;;;;8.02;1.90;;;16.20;64.00;;;;;;4976679;28;20047;-81
2021/01/05 10:38:06;;;;;;;7.55;2.03;;;16.20;64.00;;;;;;4993274;28;20115;-80
2021/01/05 10:40:37;;;;;;;9.38;1.70;;;16.20;63.40;;;;;;4999167;28;20058;-78
2021/01/05 10:43:03;;;;;;;8.88;1.63;;;16.30;62.40;;;;;;4996275;28;20046;-79
2021/01/05 10:45:29;;;;;;;9.75;2.13;;;16.20;62.30;;;;;;4995616;28;20453;-78
2021/01/05 10:47:55;;;;;;;11.73;1.90;;;16.30;62.40;;;;;;4995819;28;20066;-77
2021/01/05 10:50:24;;;;;;;8.20;1.98;;;16.40;62.30;;;;;;4994493;28;20050;-77
2021/01/05 10:52:51;;;;;;;9.68;1.20;;;16.40;62.20;;;;;;4995932;28;20187;-76
2021/01/05 10:55:19;;;;;;;6.78;1.30;;;16.40;62.10;;;;;;4996063;28;20050;-77
2021/01/05 10:57:45;;;;;;;6.05;1.23;;;16.40;61.80;;;;;;4994886;28;20049;-77
2021/01/05 11:00:15;;;;;;;8.52;1.50;;;16.40;61.50;;;;;;4981382;28;20516;-78
2021/01/05 11:02:41;;;;;;;4.63;0.95;;;16.40;61.20;;;;;;4995344;28;20042;-77
2021/01/05 11:05:09;;;;;;;6.03;1.13;;;16.40;60.90;;;;;;4995733;28;20446;-77
2021/01/05 11:07:35;;;;;;;5.10;1.40;;;16.40;60.80;;;;;;4989279;28;20126;-77
2021/01/05 11:10:01;;;;;;;4.53;0.80;;;16.40;60.70;;;;;;4976385;28;20142;-76
2021/01/05 11:12:27;;;;;;;6.10;1.00;;;16.40;60.90;;;;;;4990154;28;20039;-76
2021/01/05 11:14:53;;;;;;;3.85;0.80;;;16.40;60.60;;;;;;4977182;28;20054;-77
2021/01/05 11:17:19;;;;;;;4.30;0.90;;;16.40;60.80;;;;;;4989289;28;20100;-78
2021/01/05 11:19:46;;;;;;;4.13;0.73;;;16.40;60.90;;;;;;4975893;28;20339;-77
2021/01/05 11:22:19;;;;;;;7.13;0.80;;;16.40;60.70;;;;;;4975892;28;20423;-78
2021/01/05 11:24:46;;;;;;;9.82;1.10;;;16.40;61.00;;;;;;4981406;28;20077;-83
2021/01/05 11:27:14;;;;;;;14.88;1.40;;;16.40;60.30;;;;;;4962687;28;20054;-81
2021/01/05 11:29:42;;;;;;;8.38;0.98;;;16.40;60.10;;;;;;4974925;28;20165;-83
2021/01/05 11:32:17;;;;;;;11.73;1.10;;;16.40;60.20;;;;;;4959332;28;20061;-83
2021/01/05 11:34:43;;;;;;;19.52;1.80;;;16.40;60.40;;;;;;4984265;28;20043;-81
2021/01/05 11:37:13;;;;;;;15.05;1.27;;;16.40;60.50;;;;;;4983750;28;20066;-79
2021/01/05 11:39:42;;;;;;;9.93;1.35;;;16.40;60.60;;;;;;4995603;28;20105;-78
2021/01/05 11:42:10;;;;;;;17.67;2.13;;;16.30;60.60;;;;;;4993076;28;20058;-83
2021/01/05 11:44:39;;;;;;;14.73;1.83;;;16.40;60.60;;;;;;4943234;28;20078;-85
2021/01/05 11:47:06;;;;;;;13.85;1.48;;;16.30;60.30;;;;;;4947658;28;20050;-80
2021/01/05 11:49:32;;;;;;;16.20;1.48;;;16.30;60.30;;;;;;4994463;28;20046;-83
2021/01/05 11:51:58;;;;;;;10.15;1.50;;;16.30;60.50;;;;;;4988264;28;20069;-81
2021/01/05 11:54:25;;;;;;;17.38;2.20;;;16.30;57.70;;;;;;4994022;28;20121;-83
2021/01/05 11:56:55;;;;;;;14.10;1.83;;;16.20;57.60;;;;;;4992647;28;20373;-82
2021/01/05 11:59:21;;;;;;;9.10;1.05;;;16.10;57.00;;;;;;4978442;28;20050;-82
2021/01/05 12:01:47;;;;;;;8.40;1.52;;;16.10;57.70;;;;;;4994965;28;20520;-81
2021/01/05 12:04:13;;;;;;;9.52;1.42;;;16.00;58.00;;;;;;4978101;28;20374;-81
2021/01/05 12:06:38;;;;;;;8.02;1.88;;;16.10;58.20;;;;;;4995546;28;20042;-82
2021/01/05 12:09:08;;;;;;;7.63;1.05;;;16.10;58.10;;;;;;4995583;28;20042;-81
2021/01/05 12:11:35;;;;;;;5.35;1.17;;;16.10;58.10;;;;;;4979721;28;20042;-81
2021/01/05 12:14:04;;;;;;;4.57;1.35;;;16.10;58.00;;;;;;4982214;28;20042;-82
2021/01/05 12:16:33;;;;;;;5.47;1.00;;;16.10;57.80;;;;;;4981640;28;20050;-82
2021/01/05 12:19:01;;;;;;;7.50;1.17;;;16.10;57.70;;;;;;4999217;28;20038;-82
2021/01/05 12:21:30;;;;;;;6.80;0.82;;;16.10;57.70;;;;;;4999139;28;20077;-81
2021/01/05 12:23:56;;;;;;;4.95;0.80;;;16.10;57.50;;;;;;4981546;28;20129;-82
2021/01/05 12:26:48;;;;;;;5.47;0.80;;;16.10;57.50;;;;;;4999065;28;20077;-82
2021/01/05 12:29:21;;;;;;;5.57;1.27;;;16.10;57.30;;;;;;4977417;28;20137;-81
2021/01/05 12:31:49;;;;;;;2.75;0.98;;;16.10;57.30;;;;;;4997457;28;20112;-82
2021/01/05 12:34:18;;;;;;;4.85;0.98;;;16.10;57.20;;;;;;4998635;28;20046;-81
2021/01/05 12:36:44;;;;;;;3.85;0.80;;;16.00;57.10;;;;;;4999069;28;20125;-82
2021/01/05 12:39:17;;;;;;;5.35;0.80;;;16.00;57.00;;;;;;4997997;28;20050;-81
2021/01/05 12:41:43;;;;;;;5.90;1.20;;;16.00;57.00;;;;;;4981353;28;20047;-81
2021/01/05 12:44:12;;;;;;;2.42;0.90;;;16.00;56.90;;;;;;4998677;28;20046;-82
2021/01/05 12:46:38;;;;;;;5.78;0.95;;;16.00;56.90;;;;;;4998704;28;20069;-81
2021/01/05 12:49:09;;;;;;;4.18;0.50;;;16.00;56.80;;;;;;4981369;28;20054;-82
2021/01/05 12:51:37;;;;;;;3.58;1.30;;;16.00;56.70;;;;;;4998852;28;20042;-82
2021/01/05 12:54:04;;;;;;;3.47;0.80;;;15.90;56.60;;;;;;4981798;28;20046;-82
2021/01/05 12:56:30;;;;;;;4.53;0.95;;;15.90;56.60;;;;;;4981163;28;20053;-82
2021/01/05 12:58:56;;;;;;;1.77;0.50;;;15.90;56.60;;;;;;4997240;28;20047;-82
2021/01/05 13:01:22;;;;;;;2.42;0.73;;;15.90;56.50;;;;;;4998316;28;20117;-82